This is the latest recevied weather packets stored in our database for station/object DL7KAW-10. If no packets are shown the sender has not sent any weather packets the latest 10 day(s).
| Time | Temp. | Humidity | Pressure | Rain* | Wind** | Luminosity | Snow |
|---|---|---|---|---|---|---|---|
| 1788345119 | 21.67° C | 65% | 1020.1 hPa | - | - | - | - |
| 1788344219 | 21.67° C | 64% | 1020.1 hPa | - | - | - | - |
| 1788343318 | 21.67° C | 63% | 1020.2 hPa | - | - | - | - |
| 1788342418 | 21.67° C | 62% | 1020.3 hPa | - | - | - | - |
| 1788341518 | 21.11° C | 64% | 1020.2 hPa | - | - | - | - |
| 1788340618 | 21.67° C | 62% | 1020.3 hPa | - | - | - | - |
| 1788339718 | 21.67° C | 61% | 1020.4 hPa | - | - | - | - |
| 1788338818 | 22.22° C | 60% | 1020.4 hPa | - | - | - | - |
| 1788337918 | 24.44° C | 52% | 1020.4 hPa | - | - | - | - |
| 1788337018 | 24.44° C | 52% | 1020.4 hPa | - | - | - | - |
| 1788336117 | 21.11° C | 63% | 1020.4 hPa | - | - | - | - |
| 1788335217 | 20.56° C | 64% | 1020.3 hPa | - | - | - | - |
| 1788334317 | 20.56° C | 64% | 1020.2 hPa | - | - | - | - |
| 1788333417 | 20.56° C | 64% | 1020.2 hPa | - | - | - | - |
| 1788332517 | 20° C | 65% | 1020 hPa | - | - | - | - |
| 1788331617 | 20° C | 65% | 1020 hPa | - | - | - | - |
| 1788330717 | 19.44° C | 66% | 1020 hPa | - | - | - | - |
| 1788329817 | 19.44° C | 66% | 1020.1 hPa | - | - | - | - |
| 1788328916 | 19.44° C | 66% | 1020.1 hPa | - | - | - | - |
| 1788328016 | 19.44° C | 66% | 1020.1 hPa | - | - | - | - |
| 1788327116 | 19.44° C | 65% | 1020 hPa | - | - | - | - |
| 1788326215 | 19.44° C | 65% | 1020 hPa | - | - | - | - |
| 1788325315 | 18.89° C | 65% | 1019.8 hPa | - | - | - | - |
| 1788324415 | 19.44° C | 65% | 1019.7 hPa | - | - | - | - |
| 1788323515 | 18.89° C | 66% | 1019.5 hPa | - | - | - | - |
* Rain since midnight (hover to see other rain measurements)
** Current wind speed in m/s (hover to see current wind gust speed)